createdAt,value
2023-01-13T00:01:27.607Z,9.92
2023-01-13T00:03:54.945Z,9.88
2023-01-13T00:06:27.880Z,9.86
2023-01-13T00:08:55.244Z,9.82
2023-01-13T00:11:23.289Z,9.80
2023-01-13T00:13:50.532Z,9.78
2023-01-13T00:16:19.093Z,9.79
2023-01-13T00:18:47.697Z,9.76
2023-01-13T00:21:18.681Z,9.74
2023-01-13T00:23:47.445Z,9.69
2023-01-13T00:26:21.814Z,9.68
2023-01-13T00:28:49.279Z,9.64
2023-01-13T00:31:21.189Z,9.62
2023-01-13T00:33:49.270Z,9.58
2023-01-13T00:36:18.298Z,9.57
2023-01-13T00:38:45.725Z,9.52
2023-01-13T00:41:16.244Z,9.49
2023-01-13T00:43:43.867Z,9.49
2023-01-13T00:46:16.863Z,9.44
2023-01-13T00:48:44.473Z,9.42
2023-01-13T00:51:15.792Z,9.42
2023-01-13T00:53:47.999Z,9.41
2023-01-13T00:56:41.169Z,9.39
2023-01-13T00:59:12.962Z,9.38
2023-01-13T01:01:41.663Z,9.38
2023-01-13T01:04:09.006Z,9.39
2023-01-13T01:06:36.167Z,9.39
2023-01-13T01:09:04.252Z,9.39
2023-01-13T01:11:32.866Z,9.38
2023-01-13T01:14:03.019Z,9.36
2023-01-13T01:16:32.832Z,9.36
2023-01-13T01:19:01.117Z,9.37
2023-01-13T01:21:29.155Z,9.38
2023-01-13T01:23:59.083Z,9.32
2023-01-13T01:26:28.759Z,9.35
2023-01-13T01:28:56.417Z,9.36
2023-01-13T01:31:33.202Z,9.34
2023-01-13T01:34:01.469Z,9.34
2023-01-13T01:36:30.352Z,9.30
2023-01-13T01:38:59.326Z,9.26
2023-01-13T01:41:30.541Z,9.26
2023-01-13T01:44:07.807Z,9.24
2023-01-13T01:46:43.895Z,9.20
2023-01-13T01:49:24.500Z,9.16
2023-01-13T01:52:02.352Z,9.12
2023-01-13T01:54:52.271Z,9.11
2023-01-13T01:57:29.404Z,9.10
2023-01-13T02:00:00.932Z,9.08
2023-01-13T02:02:30.573Z,9.05
2023-01-13T02:04:59.251Z,9.03
2023-01-13T02:07:30.612Z,8.99
2023-01-13T02:10:02.746Z,8.97
2023-01-13T02:12:30.249Z,8.93
2023-01-13T02:15:14.261Z,8.91
2023-01-13T02:17:53.166Z,8.88
2023-01-13T02:20:53.859Z,8.86
2023-01-13T02:24:07.358Z,8.85
2023-01-13T02:27:34.007Z,8.82
2023-01-13T02:30:41.494Z,8.78
2023-01-13T02:33:23.436Z,8.73
2023-01-13T02:36:05.264Z,8.70
2023-01-13T02:38:51.523Z,8.68
2023-01-13T02:42:39.404Z,8.69
2023-01-13T02:45:16.467Z,8.66
2023-01-13T02:47:47.587Z,8.68
2023-01-13T02:50:22.127Z,8.73
2023-01-13T02:53:17.754Z,8.77
2023-01-13T02:55:49.911Z,8.83
2023-01-13T02:58:21.249Z,8.89
2023-01-13T03:00:49.180Z,8.94
2023-01-13T03:03:16.452Z,8.95
2023-01-13T03:05:46.599Z,9.01
2023-01-13T03:08:42.812Z,9.08
2023-01-13T03:11:13.213Z,9.10
2023-01-13T03:14:04.729Z,9.10
2023-01-13T03:16:57.254Z,9.11
2023-01-13T03:19:59.619Z,9.10
2023-01-13T03:22:53.325Z,9.11
2023-01-13T03:25:36.084Z,9.14
2023-01-13T03:28:20.347Z,9.19
2023-01-13T03:30:56.950Z,9.21
2023-01-13T03:33:53.804Z,9.25
2023-01-13T03:36:26.123Z,9.26
2023-01-13T03:39:03.885Z,9.25
2023-01-13T03:41:44.466Z,9.31
2023-01-13T03:44:32.872Z,9.34
2023-01-13T03:47:14.843Z,9.37
2023-01-13T03:50:03.398Z,9.39
2023-01-13T03:52:36.840Z,9.35
2023-01-13T03:55:13.563Z,9.32
2023-01-13T03:57:53.682Z,9.23
2023-01-13T04:00:27.398Z,9.14
2023-01-13T04:03:04.441Z,9.07
2023-01-13T04:05:36.382Z,9.03
2023-01-13T04:08:25.211Z,9.01
2023-01-13T04:11:12.768Z,8.99
2023-01-13T04:13:43.147Z,8.99
2023-01-13T04:16:11.876Z,8.98
2023-01-13T04:18:40.292Z,8.97
2023-01-13T04:21:08.344Z,8.97
2023-01-13T04:23:35.656Z,8.96
2023-01-13T04:26:02.619Z,8.95
2023-01-13T04:28:29.661Z,8.94
2023-01-13T04:30:56.818Z,8.89
2023-01-13T04:33:23.933Z,8.85
2023-01-13T04:35:52.634Z,8.83
2023-01-13T04:38:21.539Z,8.84
2023-01-13T04:40:48.689Z,8.79
2023-01-13T04:43:16.061Z,8.84
2023-01-13T04:45:43.861Z,8.86
2023-01-13T04:48:11.271Z,8.88
2023-01-13T04:50:38.800Z,8.92
2023-01-13T04:53:06.171Z,8.97
2023-01-13T04:55:33.487Z,9.01
2023-01-13T04:58:10.148Z,9.05
2023-01-13T05:00:38.448Z,9.09
2023-01-13T05:03:05.501Z,9.12
2023-01-13T05:05:33.034Z,9.14
2023-01-13T05:08:00.229Z,9.16
2023-01-13T05:10:27.665Z,9.16
2023-01-13T05:13:13.399Z,9.14
2023-01-13T05:16:00.466Z,9.10
2023-01-13T05:18:29.845Z,9.03
2023-01-13T05:20:56.936Z,8.97
2023-01-13T05:23:42.860Z,8.88
2023-01-13T05:26:10.166Z,8.80
2023-01-13T05:28:37.499Z,8.76
2023-01-13T05:31:04.679Z,8.73
2023-01-13T05:33:32.747Z,8.72
2023-01-13T05:36:03.191Z,8.74
2023-01-13T05:38:30.415Z,8.72
2023-01-13T05:41:18.843Z,8.70
2023-01-13T05:43:45.855Z,8.69
2023-01-13T05:46:12.963Z,8.67
2023-01-13T05:48:42.914Z,8.65
2023-01-13T05:51:12.369Z,8.60
2023-01-13T05:53:42.410Z,8.57
2023-01-13T05:56:10.843Z,8.55
2023-01-13T05:58:38.307Z,8.53
2023-01-13T06:01:10.674Z,8.49
2023-01-13T06:03:38.392Z,8.48
2023-01-13T06:06:06.092Z,8.45
2023-01-13T06:08:33.201Z,8.46
2023-01-13T06:11:00.884Z,8.44
2023-01-13T06:13:28.029Z,8.42
2023-01-13T06:15:59.513Z,8.42
2023-01-13T06:18:27.772Z,8.42
2023-01-13T06:20:55.352Z,8.42
2023-01-13T06:23:22.405Z,8.44
2023-01-13T06:26:10.376Z,8.43
2023-01-13T06:28:37.420Z,8.42
2023-01-13T06:31:08.737Z,8.42
2023-01-13T06:33:49.478Z,8.42
2023-01-13T06:36:47.673Z,8.43
2023-01-13T06:39:20.173Z,8.41
2023-01-13T06:42:08.541Z,8.41
2023-01-13T06:44:35.608Z,8.42
2023-01-13T06:47:02.974Z,8.46
2023-01-13T06:49:30.379Z,8.53
2023-01-13T06:51:57.356Z,8.57
2023-01-13T06:54:25.840Z,8.59
2023-01-13T06:56:54.814Z,8.62
2023-01-13T06:59:22.756Z,8.65
2023-01-13T07:01:50.075Z,8.63
2023-01-13T07:04:17.232Z,8.65
2023-01-13T07:06:44.606Z,8.63
2023-01-13T07:09:11.703Z,8.57
2023-01-13T07:11:38.783Z,8.52
2023-01-13T07:14:24.732Z,8.46
2023-01-13T07:16:53.805Z,8.44
2023-01-13T07:19:23.936Z,8.42
2023-01-13T07:21:54.071Z,8.39
2023-01-13T07:24:22.559Z,8.36
2023-01-13T07:26:52.197Z,8.36
2023-01-13T07:29:19.379Z,8.35
2023-01-13T07:31:49.687Z,8.34
2023-01-13T07:34:17.225Z,8.33
2023-01-13T07:36:44.529Z,8.34
2023-01-13T07:39:11.639Z,8.39
2023-01-13T07:41:57.649Z,8.41
2023-01-13T07:44:24.940Z,8.42
2023-01-13T07:46:51.954Z,8.42
2023-01-13T07:49:18.997Z,8.40
2023-01-13T07:51:46.004Z,8.39
2023-01-13T07:54:12.965Z,8.39
2023-01-13T07:56:40.213Z,8.38
2023-01-13T07:59:07.345Z,8.37
2023-01-13T08:01:34.462Z,8.37
2023-01-13T08:04:01.590Z,8.39
2023-01-13T08:06:28.790Z,8.41
2023-01-13T08:08:55.790Z,8.41
2023-01-13T08:11:23.725Z,8.42
2023-01-13T08:13:55.021Z,8.43
2023-01-13T08:16:22.062Z,8.46
2023-01-13T08:18:49.168Z,8.47
2023-01-13T08:21:16.936Z,8.48
2023-01-13T08:23:45.198Z,8.49
2023-01-13T08:26:17.362Z,8.52
2023-01-13T08:28:45.674Z,8.52
2023-01-13T08:31:20.086Z,8.59
2023-01-13T08:33:47.340Z,8.64
2023-01-13T08:36:14.810Z,8.67
2023-01-13T08:38:42.251Z,8.69
2023-01-13T08:41:36.481Z,8.74
2023-01-13T08:44:03.909Z,8.77
2023-01-13T08:46:31.009Z,8.81
2023-01-13T08:48:58.297Z,8.85
2023-01-13T08:51:25.453Z,8.93
2023-01-13T08:53:52.460Z,9.04
2023-01-13T08:56:19.491Z,9.14
2023-01-13T08:58:46.859Z,9.23
2023-01-13T09:01:19.884Z,9.25
2023-01-13T09:03:47.069Z,9.31
2023-01-13T09:06:14.558Z,9.36
2023-01-13T09:08:41.872Z,9.44
2023-01-13T09:11:44.487Z,9.56
2023-01-13T09:14:11.450Z,9.70
2023-01-13T09:16:38.475Z,9.80
2023-01-13T09:19:05.475Z,9.84
2023-01-13T09:21:32.492Z,9.87
2023-01-13T09:23:59.656Z,9.92
2023-01-13T09:26:26.864Z,9.94
2023-01-13T09:28:53.856Z,9.97
2023-01-13T09:31:21.209Z,10.01
2023-01-13T09:34:07.065Z,10.06
2023-01-13T09:36:34.275Z,10.11
2023-01-13T09:39:01.445Z,10.15
2023-01-13T09:41:49.719Z,10.16
2023-01-13T09:44:48.455Z,10.19
2023-01-13T09:47:29.263Z,10.22
2023-01-13T09:50:28.969Z,10.24
2023-01-13T09:52:57.392Z,10.25
2023-01-13T09:55:37.917Z,10.28
2023-01-13T09:58:18.568Z,10.31
2023-01-13T10:00:58.444Z,10.37
2023-01-13T10:03:29.559Z,10.40
2023-01-13T10:06:42.438Z,10.38
2023-01-13T10:09:21.311Z,10.43
2023-01-13T10:12:09.241Z,10.48
2023-01-13T10:14:55.209Z,10.52
2023-01-13T10:17:58.344Z,10.63
2023-01-13T10:20:49.769Z,10.71
2023-01-13T10:23:46.688Z,10.77
2023-01-13T10:26:58.051Z,10.96
2023-01-13T10:29:28.627Z,11.30
2023-01-13T10:31:58.256Z,11.70
2023-01-13T10:34:27.637Z,11.90
2023-01-13T10:37:09.853Z,11.67
2023-01-13T10:39:46.397Z,11.44
2023-01-13T10:42:22.067Z,11.36
2023-01-13T10:44:55.322Z,11.23
2023-01-13T10:47:33.277Z,11.06
2023-01-13T10:50:05.448Z,10.81
2023-01-13T10:52:41.513Z,10.55
2023-01-13T10:55:33.387Z,10.37
2023-01-13T10:58:21.428Z,10.24
2023-01-13T11:00:58.390Z,10.20
2023-01-13T11:03:28.039Z,10.18
2023-01-13T11:06:00.356Z,10.14
2023-01-13T11:08:49.732Z,10.23
2023-01-13T11:11:43.575Z,10.26
2023-01-13T11:14:50.214Z,10.35
2023-01-13T11:17:47.197Z,10.45
2023-01-13T11:20:32.450Z,10.48
2023-01-13T11:23:08.310Z,10.51
2023-01-13T11:25:43.509Z,10.58
2023-01-13T11:28:38.150Z,10.55
2023-01-13T11:31:14.934Z,10.46
2023-01-13T11:33:53.577Z,10.49
2023-01-13T11:36:33.082Z,10.61
2023-01-13T11:39:20.828Z,10.71
2023-01-13T11:42:18.501Z,10.81
2023-01-13T11:45:03.386Z,10.91
2023-01-13T11:47:32.260Z,10.96
2023-01-13T11:50:00.400Z,10.97
2023-01-13T11:53:00.595Z,10.98
2023-01-13T11:56:04.727Z,10.99
2023-01-13T11:59:01.933Z,10.96
2023-01-13T12:01:52.941Z,10.93
2023-01-13T12:04:23.284Z,10.88
2023-01-13T12:07:36.649Z,10.82
2023-01-13T12:10:13.725Z,10.74
2023-01-13T12:13:00.181Z,10.65
2023-01-13T12:16:09.223Z,10.59
2023-01-13T12:19:17.649Z,10.60
2023-01-13T12:22:12.372Z,10.57
2023-01-13T12:25:32.571Z,10.46
2023-01-13T12:28:07.732Z,10.45
2023-01-13T12:30:56.538Z,10.54
2023-01-13T12:34:06.051Z,10.62
2023-01-13T12:36:50.813Z,10.59
2023-01-13T12:39:27.162Z,10.55
2023-01-13T12:42:28.698Z,10.49
2023-01-13T12:45:10.130Z,10.43
2023-01-13T12:47:45.667Z,10.40
2023-01-13T12:50:27.352Z,10.38
2023-01-13T12:53:21.351Z,10.34
2023-01-13T12:55:53.206Z,10.31
2023-01-13T12:58:28.570Z,10.29
2023-01-13T13:01:10.881Z,10.23
2023-01-13T13:03:38.315Z,10.22
2023-01-13T13:06:17.771Z,10.26
2023-01-13T13:08:58.682Z,10.27
2023-01-13T13:12:03.012Z,10.31
2023-01-13T13:14:42.138Z,10.33
2023-01-13T13:17:39.599Z,10.34
2023-01-13T13:21:06.980Z,10.35
2023-01-13T13:23:36.551Z,10.39
2023-01-13T13:26:30.972Z,10.42
2023-01-13T13:29:42.970Z,10.46
2023-01-13T13:32:25.832Z,10.57
2023-01-13T13:35:43.321Z,10.63
2023-01-13T13:39:07.938Z,10.66
2023-01-13T13:41:55.628Z,10.73
2023-01-13T13:44:56.231Z,10.76
2023-01-13T13:47:23.534Z,10.80
2023-01-13T13:49:54.527Z,10.83
2023-01-13T13:52:30.322Z,10.84
2023-01-13T13:55:07.741Z,10.82
2023-01-13T13:57:40.060Z,10.87
2023-01-13T14:00:29.980Z,10.92
2023-01-13T14:03:04.440Z,10.90
2023-01-13T14:05:34.903Z,10.89
2023-01-13T14:08:14.310Z,10.89
2023-01-13T14:10:43.452Z,10.91
2023-01-13T14:13:22.809Z,10.87
2023-01-13T14:16:13.814Z,10.84
2023-01-13T14:18:48.545Z,10.81
2023-01-13T14:21:20.506Z,10.77
2023-01-13T14:23:59.408Z,10.76
2023-01-13T14:26:32.615Z,10.72
2023-01-13T14:29:02.256Z,10.65
2023-01-13T14:31:30.510Z,10.62
2023-01-13T14:34:01.838Z,10.58
2023-01-13T14:36:38.952Z,10.55
2023-01-13T14:39:06.402Z,10.50
2023-01-13T14:41:42.483Z,10.48
2023-01-13T14:44:35.948Z,10.47
2023-01-13T14:47:28.592Z,10.45
2023-01-13T14:50:07.243Z,10.42
2023-01-13T14:52:47.044Z,10.40
2023-01-13T14:55:28.785Z,10.41
2023-01-13T14:58:20.655Z,10.38
2023-01-13T15:00:49.670Z,10.32
2023-01-13T15:03:21.123Z,10.27
2023-01-13T15:05:52.080Z,10.25
2023-01-13T15:08:34.718Z,10.24
2023-01-13T15:11:07.669Z,10.23
2023-01-13T15:13:53.368Z,10.22
2023-01-13T15:16:26.633Z,10.21
2023-01-13T15:18:57.977Z,10.19
2023-01-13T15:21:25.346Z,10.17
2023-01-13T15:23:52.446Z,10.21
2023-01-13T15:26:28.793Z,10.36
2023-01-13T15:28:58.515Z,10.40
2023-01-13T15:31:26.661Z,10.36
2023-01-13T15:33:54.699Z,10.30
2023-01-13T15:36:31.069Z,10.23
2023-01-13T15:39:00.048Z,10.17
2023-01-13T15:41:45.850Z,10.11
2023-01-13T15:44:33.429Z,10.06
2023-01-13T15:47:06.544Z,10.04
2023-01-13T15:49:42.258Z,10.02
2023-01-13T15:52:28.145Z,9.99
2023-01-13T15:54:55.364Z,9.96
2023-01-13T15:57:33.400Z,9.97
2023-01-13T16:00:20.504Z,9.94
2023-01-13T16:02:48.952Z,9.90
2023-01-13T16:05:16.917Z,9.91
2023-01-13T16:07:44.019Z,9.90
2023-01-13T16:10:24.067Z,9.91
2023-01-13T16:12:51.483Z,9.92
2023-01-13T16:15:22.445Z,9.92
2023-01-13T16:17:58.134Z,9.92
2023-01-13T16:20:26.265Z,9.94
2023-01-13T16:22:55.945Z,9.96
2023-01-13T16:25:26.547Z,9.99
2023-01-13T16:27:54.463Z,9.99
2023-01-13T16:30:28.989Z,10.03
2023-01-13T16:32:56.256Z,10.02
2023-01-13T16:35:24.557Z,10.06
2023-01-13T16:37:52.344Z,10.06
2023-01-13T16:40:31.961Z,10.05
2023-01-13T16:43:00.995Z,10.07
2023-01-13T16:45:28.256Z,10.07
2023-01-13T16:47:55.409Z,10.08
2023-01-13T16:50:36.320Z,10.10
2023-01-13T16:53:04.720Z,10.10
2023-01-13T16:55:32.458Z,10.13
2023-01-13T16:57:59.496Z,10.14
2023-01-13T17:00:27.005Z,10.15
2023-01-13T17:02:54.409Z,10.16
2023-01-13T17:05:21.746Z,10.16
2023-01-13T17:07:48.909Z,10.17
2023-01-13T17:10:20.320Z,10.18
2023-01-13T17:12:47.359Z,10.19
2023-01-13T17:15:17.232Z,10.20
2023-01-13T17:17:48.100Z,10.10
2023-01-13T17:20:16.390Z,10.15
2023-01-13T17:22:45.617Z,10.12
2023-01-13T17:25:14.864Z,10.13
2023-01-13T17:27:42.500Z,10.09
2023-01-13T17:30:14.211Z,10.05
2023-01-13T17:32:41.927Z,9.98
2023-01-13T17:35:09.919Z,9.91
2023-01-13T17:37:37.193Z,9.84
2023-01-13T17:40:05.019Z,9.78
2023-01-13T17:42:32.152Z,9.71
2023-01-13T17:44:59.151Z,9.65
2023-01-13T17:47:26.186Z,9.58
2023-01-13T17:49:53.246Z,9.52
2023-01-13T17:52:20.441Z,9.45
2023-01-13T17:54:47.460Z,9.40
2023-01-13T17:57:14.664Z,9.39
2023-01-13T17:59:41.821Z,9.38
2023-01-13T18:02:12.453Z,9.36
2023-01-13T18:04:40.173Z,9.34
2023-01-13T18:07:07.157Z,9.29
2023-01-13T18:09:34.382Z,9.27
2023-01-13T18:12:01.826Z,9.25
2023-01-13T18:14:28.915Z,9.22
2023-01-13T18:16:56.267Z,9.23
2023-01-13T18:19:42.198Z,9.21
2023-01-13T18:22:32.065Z,9.21
2023-01-13T18:25:18.063Z,9.19
2023-01-13T18:27:45.564Z,9.20
2023-01-13T18:30:14.980Z,9.20
2023-01-13T18:32:42.935Z,9.21
2023-01-13T18:35:10.713Z,9.21
2023-01-13T18:37:42.332Z,9.23
2023-01-13T18:40:13.406Z,9.22
2023-01-13T18:42:56.294Z,9.23
2023-01-13T18:45:30.768Z,9.24
2023-01-13T18:48:01.360Z,9.23
2023-01-13T18:50:29.409Z,9.20
2023-01-13T18:52:56.885Z,9.19
2023-01-13T18:55:24.452Z,9.17
2023-01-13T18:57:52.552Z,9.16
2023-01-13T19:00:21.586Z,9.16
2023-01-13T19:05:34.977Z,9.17
2023-01-13T19:08:03.349Z,9.21
2023-01-13T19:10:32.347Z,9.23
2023-01-13T19:13:01.166Z,9.27
2023-01-13T19:15:28.398Z,9.32
2023-01-13T19:17:55.456Z,9.32
2023-01-13T19:20:22.445Z,9.27
2023-01-13T19:22:54.233Z,9.21
2023-01-13T19:25:21.396Z,9.10
2023-01-13T19:27:48.562Z,8.96
2023-01-13T19:30:15.855Z,8.84
2023-01-13T19:32:42.898Z,8.75
2023-01-13T19:35:13.011Z,8.69
2023-01-13T19:37:40.417Z,8.60
2023-01-13T19:40:09.685Z,8.52
2023-01-13T19:42:55.612Z,8.44
2023-01-13T19:45:31.266Z,8.37
2023-01-13T19:48:01.923Z,8.32
2023-01-13T19:50:29.417Z,8.29
2023-01-13T19:52:56.553Z,8.28
2023-01-13T19:55:24.007Z,8.26
2023-01-13T19:57:51.005Z,8.23
2023-01-13T20:00:20.831Z,8.22
2023-01-13T20:02:51.804Z,8.23
2023-01-13T20:05:22.552Z,8.23
2023-01-13T20:07:51.324Z,8.24
2023-01-13T20:10:38.785Z,8.28
2023-01-13T20:13:06.627Z,8.32
2023-01-13T20:15:33.724Z,8.36
2023-01-13T20:18:00.868Z,8.38
2023-01-13T20:20:28.039Z,8.37
2023-01-13T20:22:55.203Z,8.38
2023-01-13T20:25:22.306Z,8.35
2023-01-13T20:27:49.603Z,8.34
2023-01-13T20:30:16.729Z,8.30
2023-01-13T20:32:45.079Z,8.28
2023-01-13T20:35:12.704Z,8.23
2023-01-13T20:37:42.168Z,8.22
2023-01-13T20:40:15.702Z,8.20
2023-01-13T20:42:45.229Z,8.21
2023-01-13T20:45:18.024Z,8.23
2023-01-13T20:47:45.675Z,8.23
2023-01-13T20:50:13.424Z,8.24
2023-01-13T20:52:40.666Z,8.26
2023-01-13T20:55:08.814Z,8.29
2023-01-13T20:57:36.050Z,8.32
2023-01-13T21:00:16.541Z,8.33
2023-01-13T21:02:44.051Z,8.34
2023-01-13T21:05:11.135Z,8.31
2023-01-13T21:07:38.342Z,8.28
2023-01-13T21:10:06.326Z,8.24
2023-01-13T21:12:52.179Z,8.21
2023-01-13T21:15:21.736Z,8.10
2023-01-13T21:18:09.743Z,8.12
2023-01-13T21:20:39.090Z,8.09
2023-01-13T21:23:07.171Z,8.07
2023-01-13T21:25:36.465Z,8.06
2023-01-13T21:28:06.793Z,8.04
2023-01-13T21:30:35.405Z,8.02
2023-01-13T21:33:04.204Z,8.01
2023-01-13T21:35:31.398Z,8.01
2023-01-13T21:37:58.548Z,8.03
2023-01-13T21:40:26.863Z,8.05
2023-01-13T21:43:12.604Z,8.07
2023-01-13T21:45:58.317Z,8.07
2023-01-13T21:48:25.431Z,8.09
2023-01-13T21:50:52.384Z,8.10
2023-01-13T21:53:19.542Z,8.16
2023-01-13T21:55:52.110Z,8.19
2023-01-13T21:58:19.329Z,8.16
2023-01-13T22:00:49.198Z,8.14
2023-01-13T22:03:18.517Z,8.11
2023-01-13T22:05:46.364Z,8.09
2023-01-13T22:08:13.638Z,8.06
2023-01-13T22:11:01.127Z,8.05
2023-01-13T22:13:48.034Z,8.03
2023-01-13T22:16:15.838Z,8.03
2023-01-13T22:18:43.210Z,8.03
2023-01-13T22:21:11.031Z,8.05
2023-01-13T22:23:38.248Z,8.04
2023-01-13T22:26:07.368Z,8.04
2023-01-13T22:28:40.717Z,8.03
2023-01-13T22:31:17.195Z,8.03
2023-01-13T22:33:48.075Z,8.03
2023-01-13T22:36:15.774Z,8.05
2023-01-13T22:38:42.941Z,8.07
2023-01-13T22:41:11.046Z,8.09
2023-01-13T22:43:39.266Z,8.08
2023-01-13T22:46:08.293Z,8.07
2023-01-13T22:48:35.984Z,8.07
2023-01-13T22:51:15.931Z,8.08
2023-01-13T22:53:44.387Z,8.11
2023-01-13T22:56:18.777Z,8.12
2023-01-13T22:58:46.530Z,8.12
2023-01-13T23:01:16.794Z,8.08
2023-01-13T23:03:47.712Z,8.07
2023-01-13T23:06:15.700Z,8.05
2023-01-13T23:08:42.806Z,8.04
2023-01-13T23:11:13.036Z,8.02
2023-01-13T23:13:43.148Z,7.99
2023-01-13T23:16:14.360Z,7.97
2023-01-13T23:18:48.558Z,7.96
2023-01-13T23:21:40.593Z,7.96
2023-01-13T23:24:09.551Z,7.94
2023-01-13T23:26:36.902Z,7.91
2023-01-13T23:29:11.084Z,7.90
2023-01-13T23:31:39.076Z,7.89
2023-01-13T23:34:09.112Z,7.87
2023-01-13T23:36:40.836Z,7.86
2023-01-13T23:39:08.409Z,7.86
2023-01-13T23:41:35.453Z,7.84
2023-01-13T23:44:02.506Z,7.80
2023-01-13T23:46:32.701Z,7.76
2023-01-13T23:49:01.718Z,7.73
2023-01-13T23:51:30.231Z,7.69
2023-01-13T23:53:58.710Z,7.65
2023-01-13T23:56:29.782Z,7.61
2023-01-13T23:58:57.881Z,7.57
